createdAt,value
2022-10-13T00:00:31.751Z,1016.02
2022-10-13T00:01:31.738Z,1016.02
2022-10-13T00:02:31.726Z,1016.01
2022-10-13T00:03:31.708Z,1015.96
2022-10-13T00:04:31.704Z,1016.01
2022-10-13T00:05:31.690Z,1016.03
2022-10-13T00:06:31.692Z,1015.98
2022-10-13T00:07:31.665Z,1015.98
2022-10-13T00:08:31.666Z,1015.91
2022-10-13T00:09:31.653Z,1015.97
2022-10-13T00:10:31.639Z,1016.00
2022-10-13T00:11:31.632Z,1015.99
2022-10-13T00:12:31.619Z,1015.96
2022-10-13T00:13:31.595Z,1015.97
2022-10-13T00:14:31.584Z,1015.98
2022-10-13T00:15:31.584Z,1015.99
2022-10-13T00:16:31.558Z,1015.97
2022-10-13T00:17:31.668Z,1015.96
2022-10-13T00:18:31.537Z,1015.96
2022-10-13T00:19:31.547Z,1015.94
2022-10-13T00:20:31.514Z,1015.88
2022-10-13T00:21:31.513Z,1015.90
2022-10-13T00:22:31.517Z,1015.90
2022-10-13T00:23:31.483Z,1015.87
2022-10-13T00:24:31.476Z,1015.87
2022-10-13T00:25:31.463Z,1015.85
2022-10-13T00:26:31.447Z,1015.87
2022-10-13T00:27:31.454Z,1015.86
2022-10-13T00:28:31.448Z,1015.86
2022-10-13T00:29:31.447Z,1015.87
2022-10-13T00:30:31.408Z,1015.85
2022-10-13T00:31:31.408Z,1015.86
2022-10-13T00:32:31.389Z,1015.84
2022-10-13T00:33:31.391Z,1015.86
2022-10-13T00:34:31.363Z,1015.89
2022-10-13T00:35:31.357Z,1015.89
2022-10-13T00:36:31.343Z,1015.85
2022-10-13T00:37:31.343Z,1015.82
2022-10-13T00:38:31.344Z,1015.82
2022-10-13T00:39:31.314Z,1015.84
2022-10-13T00:40:31.293Z,1015.86
2022-10-13T00:41:31.290Z,1015.84
2022-10-13T00:42:31.280Z,1015.81
2022-10-13T00:43:31.324Z,1015.80
2022-10-13T00:44:31.257Z,1015.79
2022-10-13T00:45:31.265Z,1015.79
2022-10-13T00:46:31.232Z,1015.75
2022-10-13T00:47:31.226Z,1015.77
2022-10-13T00:48:31.219Z,1015.81
2022-10-13T00:49:31.209Z,1015.76
2022-10-13T00:50:31.187Z,1015.80
2022-10-13T00:51:31.185Z,1015.82
2022-10-13T00:52:31.168Z,1015.80
2022-10-13T00:53:31.178Z,1015.77
2022-10-13T00:54:31.160Z,1015.82
2022-10-13T00:55:31.135Z,1015.77
2022-10-13T00:56:31.123Z,1015.80
2022-10-13T00:57:31.114Z,1015.76
2022-10-13T00:58:31.101Z,1015.71
2022-10-13T00:59:31.106Z,1015.74
2022-10-13T01:00:31.149Z,1015.73
2022-10-13T01:01:31.072Z,1015.73
2022-10-13T01:02:31.052Z,1015.72
2022-10-13T01:03:31.064Z,1015.72
2022-10-13T01:04:31.043Z,1015.75
2022-10-13T01:05:31.029Z,1015.74
2022-10-13T01:06:31.014Z,1015.77
2022-10-13T01:07:31.012Z,1015.77
2022-10-13T01:08:31.009Z,1015.74
2022-10-13T01:09:31.095Z,1015.73
2022-10-13T01:10:30.981Z,1015.69
2022-10-13T01:11:30.970Z,1015.71
2022-10-13T01:12:30.951Z,1015.69
2022-10-13T01:13:30.935Z,1015.67
2022-10-13T01:14:30.926Z,1015.71
2022-10-13T01:15:30.925Z,1015.71
2022-10-13T01:16:30.904Z,1015.71
2022-10-13T01:17:30.916Z,1015.71
2022-10-13T01:18:30.889Z,1015.73
2022-10-13T01:19:30.872Z,1015.69
2022-10-13T01:20:30.890Z,1015.68
2022-10-13T01:21:30.884Z,1015.63
2022-10-13T01:22:30.837Z,1015.65
2022-10-13T01:23:30.839Z,1015.65
2022-10-13T01:24:30.814Z,1015.65
2022-10-13T01:25:30.814Z,1015.63
2022-10-13T01:26:30.803Z,1015.62
2022-10-13T01:27:30.785Z,1015.61
2022-10-13T01:28:30.845Z,1015.60
2022-10-13T01:29:30.769Z,1015.61
2022-10-13T01:30:30.749Z,1015.61
2022-10-13T01:31:30.762Z,1015.61
2022-10-13T01:32:30.742Z,1015.59
2022-10-13T01:33:30.725Z,1015.60
2022-10-13T01:34:30.703Z,1015.58
2022-10-13T01:35:30.721Z,1015.57
2022-10-13T01:36:30.691Z,1015.54
2022-10-13T01:37:30.687Z,1015.54
2022-10-13T01:38:30.670Z,1015.48
2022-10-13T01:39:30.661Z,1015.48
2022-10-13T01:40:30.640Z,1015.49
2022-10-13T01:41:30.641Z,1015.47
2022-10-13T01:42:30.651Z,1015.46
2022-10-13T01:43:30.635Z,1015.47
2022-10-13T01:44:30.610Z,1015.45
2022-10-13T01:45:30.598Z,1015.44
2022-10-13T01:46:30.578Z,1015.48
2022-10-13T01:47:30.585Z,1015.45
2022-10-13T01:48:30.566Z,1015.48
2022-10-13T01:49:30.555Z,1015.41
2022-10-13T01:50:30.539Z,1015.42
2022-10-13T01:51:30.526Z,1015.40
2022-10-13T01:52:30.534Z,1015.43
2022-10-13T01:53:30.511Z,1015.42
2022-10-13T01:54:30.491Z,1015.40
2022-10-13T01:55:30.491Z,1015.39
2022-10-13T01:56:30.479Z,1015.38
2022-10-13T01:57:30.499Z,1015.36
2022-10-13T01:58:30.457Z,1015.33
2022-10-13T01:59:30.438Z,1015.30
2022-10-13T02:00:30.480Z,1015.31
2022-10-13T02:01:30.422Z,1015.31
2022-10-13T02:02:30.405Z,1015.29
2022-10-13T02:03:30.423Z,1015.25
2022-10-13T02:04:30.392Z,1015.24
2022-10-13T02:05:30.385Z,1015.23
2022-10-13T02:06:30.362Z,1015.25
2022-10-13T02:07:30.359Z,1015.24
2022-10-13T02:08:30.352Z,1015.23
2022-10-13T02:09:30.348Z,1015.17
2022-10-13T02:10:30.323Z,1015.19
2022-10-13T02:11:30.325Z,1015.17
2022-10-13T02:12:30.309Z,1015.18
2022-10-13T02:13:30.316Z,1015.17
2022-10-13T02:14:30.302Z,1015.11
2022-10-13T02:15:30.273Z,1015.11
2022-10-13T02:16:30.262Z,1015.11
2022-10-13T02:17:30.252Z,1015.13
2022-10-13T02:18:30.233Z,1015.12
2022-10-13T02:19:30.246Z,1015.11
2022-10-13T02:20:30.224Z,1015.11
2022-10-13T02:21:30.216Z,1015.09
2022-10-13T02:22:30.196Z,1015.08
2022-10-13T02:23:30.201Z,1015.07
2022-10-13T02:24:30.182Z,1015.08
2022-10-13T02:25:30.168Z,1015.10
2022-10-13T02:26:30.147Z,1015.10
2022-10-13T02:27:30.150Z,1015.10
2022-10-13T02:28:30.174Z,1015.10
2022-10-13T02:29:30.133Z,1015.05
2022-10-13T02:30:30.120Z,1015.03
2022-10-13T02:31:30.119Z,1015.03
2022-10-13T02:32:30.084Z,1015.08
2022-10-13T02:33:30.085Z,1015.10
2022-10-13T02:34:30.066Z,1015.07
2022-10-13T02:35:30.078Z,1015.05
2022-10-13T02:36:30.079Z,1015.03
2022-10-13T02:37:30.053Z,1015.03
2022-10-13T02:38:30.025Z,1014.98
2022-10-13T02:39:30.021Z,1014.96
2022-10-13T02:40:30.041Z,1014.94
2022-10-13T02:41:30.006Z,1014.97
2022-10-13T02:42:29.983Z,1014.94
2022-10-13T02:43:29.978Z,1014.92
2022-10-13T02:44:29.959Z,1014.91
2022-10-13T02:45:29.948Z,1014.91
2022-10-13T02:46:29.950Z,1014.90
2022-10-13T02:47:29.940Z,1014.88
2022-10-13T02:48:29.921Z,1014.89
2022-10-13T02:49:29.917Z,1014.88
2022-10-13T02:50:29.899Z,1014.83
2022-10-13T02:51:29.907Z,1014.89
2022-10-13T02:52:29.876Z,1014.93
2022-10-13T02:53:29.869Z,1014.92
2022-10-13T02:54:29.866Z,1014.85
2022-10-13T02:55:29.855Z,1014.82
2022-10-13T02:56:29.844Z,1014.79
2022-10-13T02:57:29.847Z,1014.81
2022-10-13T02:58:29.816Z,1014.80
2022-10-13T02:59:29.804Z,1014.85
2022-10-13T03:00:29.841Z,1014.79
2022-10-13T03:01:29.778Z,1014.80
2022-10-13T03:02:29.782Z,1014.83
2022-10-13T03:03:29.769Z,1014.84
2022-10-13T03:04:29.749Z,1014.83
2022-10-13T03:05:29.739Z,1014.84
2022-10-13T03:06:29.730Z,1014.86
2022-10-13T03:07:29.724Z,1014.81
2022-10-13T03:08:29.712Z,1014.77
2022-10-13T03:09:29.696Z,1014.80
2022-10-13T03:10:29.687Z,1014.75
2022-10-13T03:11:29.688Z,1014.76
2022-10-13T03:12:29.674Z,1014.74
2022-10-13T03:13:29.664Z,1014.74
2022-10-13T03:14:29.640Z,1014.68
2022-10-13T03:15:29.640Z,1014.71
2022-10-13T03:16:29.632Z,1014.72
2022-10-13T03:17:29.638Z,1014.72
2022-10-13T03:18:29.613Z,1014.75
2022-10-13T03:19:29.650Z,1014.76
2022-10-13T03:20:29.577Z,1014.71
2022-10-13T03:21:29.571Z,1014.71
2022-10-13T03:22:29.553Z,1014.70
2022-10-13T03:23:29.561Z,1014.70
2022-10-13T03:24:29.549Z,1014.68
2022-10-13T03:25:29.526Z,1014.69
2022-10-13T03:26:29.509Z,1014.65
2022-10-13T03:27:29.510Z,1014.68
2022-10-13T03:28:29.580Z,1014.71
2022-10-13T03:29:29.496Z,1014.68
2022-10-13T03:30:29.483Z,1014.65
2022-10-13T03:31:29.489Z,1014.66
2022-10-13T03:32:29.457Z,1014.65
2022-10-13T03:33:29.448Z,1014.67
2022-10-13T03:34:29.468Z,1014.65
2022-10-13T03:35:29.419Z,1014.65
2022-10-13T03:36:29.399Z,1014.70
2022-10-13T03:37:29.406Z,1014.69
2022-10-13T03:38:29.396Z,1014.65
2022-10-13T03:39:29.386Z,1014.65
2022-10-13T03:40:29.394Z,1014.65
2022-10-13T03:41:29.364Z,1014.67
2022-10-13T03:42:29.341Z,1014.64
2022-10-13T03:43:29.343Z,1014.60
2022-10-13T03:44:29.323Z,1014.60
2022-10-13T03:45:29.330Z,1014.57
2022-10-13T03:46:29.300Z,1014.63
2022-10-13T03:47:29.295Z,1014.58
2022-10-13T03:48:29.272Z,1014.58
2022-10-13T03:49:29.275Z,1014.53
2022-10-13T03:50:29.286Z,1014.53
2022-10-13T03:51:29.261Z,1014.57
2022-10-13T03:52:29.239Z,1014.52
2022-10-13T03:53:29.246Z,1014.55
2022-10-13T03:54:29.211Z,1014.55
2022-10-13T03:55:29.218Z,1014.53
2022-10-13T03:56:29.208Z,1014.53
2022-10-13T03:57:29.188Z,1014.50
2022-10-13T03:58:29.169Z,1014.51
2022-10-13T03:59:31.815Z,1014.49
2022-10-13T04:00:29.162Z,1014.49
2022-10-13T04:01:29.226Z,1014.48
2022-10-13T04:02:29.128Z,1014.51
2022-10-13T04:03:29.128Z,1014.46
2022-10-13T04:04:29.108Z,1014.44
2022-10-13T04:05:29.105Z,1014.47
2022-10-13T04:06:29.090Z,1014.47
2022-10-13T04:07:29.081Z,1014.47
2022-10-13T04:08:29.067Z,1014.44
2022-10-13T04:09:29.055Z,1014.44
2022-10-13T04:10:29.042Z,1014.44
2022-10-13T04:11:29.069Z,1014.41
2022-10-13T04:12:29.058Z,1014.48
2022-10-13T04:13:29.033Z,1014.47
2022-10-13T04:14:29.001Z,1014.50
2022-10-13T04:15:28.988Z,1014.48
2022-10-13T04:16:28.984Z,1014.48
2022-10-13T04:17:28.987Z,1014.46
2022-10-13T04:18:28.973Z,1014.49
2022-10-13T04:19:28.944Z,1014.45
2022-10-13T04:20:28.933Z,1014.44
2022-10-13T04:21:28.920Z,1014.43
2022-10-13T04:22:28.925Z,1014.44
2022-10-13T04:23:28.940Z,1014.46
2022-10-13T04:24:28.903Z,1014.41
2022-10-13T04:25:28.887Z,1014.47
2022-10-13T04:26:28.880Z,1014.47
2022-10-13T04:27:28.857Z,1014.46
2022-10-13T04:28:28.933Z,1014.49
2022-10-13T04:29:28.839Z,1014.46
2022-10-13T04:30:28.846Z,1014.43
2022-10-13T04:31:28.839Z,1014.42
2022-10-13T04:32:28.828Z,1014.37
2022-10-13T04:33:28.811Z,1014.39
2022-10-13T04:34:28.808Z,1014.40
2022-10-13T04:35:28.780Z,1014.38
2022-10-13T04:36:28.769Z,1014.38
2022-10-13T04:37:28.750Z,1014.37
2022-10-13T04:38:28.757Z,1014.36
2022-10-13T04:39:28.754Z,1014.36
2022-10-13T04:40:28.730Z,1014.37
2022-10-13T04:41:28.712Z,1014.36
2022-10-13T04:42:28.736Z,1014.35
2022-10-13T04:43:28.690Z,1014.31
2022-10-13T04:44:28.747Z,1014.31
2022-10-13T04:45:28.673Z,1014.30
2022-10-13T04:46:28.684Z,1014.31
2022-10-13T04:47:29.921Z,1014.26
2022-10-13T04:48:28.639Z,1014.25
2022-10-13T04:49:28.640Z,1014.24
2022-10-13T04:50:28.643Z,1014.26
2022-10-13T04:51:28.607Z,1014.27
2022-10-13T04:52:28.604Z,1014.26
2022-10-13T04:53:28.591Z,1014.21
2022-10-13T04:54:28.604Z,1014.22
2022-10-13T04:55:28.589Z,1014.22
2022-10-13T04:56:28.550Z,1014.23
2022-10-13T04:57:28.539Z,1014.25
2022-10-13T04:58:28.538Z,1014.23
2022-10-13T04:59:28.524Z,1014.27
2022-10-13T05:00:28.613Z,1014.28
2022-10-13T05:01:28.513Z,1014.28
2022-10-13T05:02:28.487Z,1014.26
2022-10-13T05:03:28.473Z,1014.23
2022-10-13T05:04:28.466Z,1014.19
2022-10-13T05:05:28.453Z,1014.18
2022-10-13T05:06:28.457Z,1014.16
2022-10-13T05:07:28.444Z,1014.18
2022-10-13T05:08:28.458Z,1014.15
2022-10-13T05:09:28.417Z,1014.22
2022-10-13T05:10:31.308Z,1014.18
2022-10-13T05:11:28.414Z,1014.19
2022-10-13T05:12:28.392Z,1014.15
2022-10-13T05:13:28.368Z,1014.18
2022-10-13T05:14:28.359Z,1014.18
2022-10-13T05:15:28.350Z,1014.20
2022-10-13T05:16:28.358Z,1014.15
2022-10-13T05:17:32.826Z,1014.14
2022-10-13T05:18:28.330Z,1014.13
2022-10-13T05:19:28.312Z,1014.12
2022-10-13T05:20:28.300Z,1014.08
2022-10-13T05:21:28.289Z,1014.03
2022-10-13T05:22:28.296Z,1014.05
2022-10-13T05:23:28.261Z,1014.03
2022-10-13T05:24:28.261Z,1014.01
2022-10-13T05:25:31.557Z,1014.03
2022-10-13T05:26:28.245Z,1014.03
2022-10-13T05:27:28.255Z,1014.02
2022-10-13T05:28:28.253Z,1014.05
2022-10-13T05:29:28.200Z,1014.01
2022-10-13T05:30:28.207Z,1013.99
2022-10-13T05:31:28.173Z,1013.97
2022-10-13T05:32:28.212Z,1013.99
2022-10-13T05:33:28.166Z,1014.04
2022-10-13T05:34:28.155Z,1014.04
2022-10-13T05:35:28.179Z,1014.07
2022-10-13T05:36:28.144Z,1014.08
2022-10-13T05:37:28.126Z,1014.08
2022-10-13T05:38:28.122Z,1014.06
2022-10-13T05:39:28.111Z,1014.03
2022-10-13T05:40:28.091Z,1014.06
2022-10-13T05:41:28.074Z,1014.08
2022-10-13T05:42:28.071Z,1014.05
2022-10-13T05:43:28.058Z,1014.07
2022-10-13T05:44:28.073Z,1014.01
2022-10-13T05:45:28.035Z,1014.03
2022-10-13T05:46:28.036Z,1013.99
2022-10-13T05:47:28.008Z,1013.99
2022-10-13T05:48:27.998Z,1013.98
2022-10-13T05:49:27.993Z,1013.98
2022-10-13T05:50:27.985Z,1014.00
2022-10-13T05:51:27.967Z,1013.97
2022-10-13T05:52:27.954Z,1013.99
2022-10-13T05:53:27.941Z,1013.99
2022-10-13T05:54:27.973Z,1013.95
2022-10-13T05:55:27.964Z,1014.01
2022-10-13T05:56:27.923Z,1014.01
2022-10-13T05:57:27.910Z,1013.98
2022-10-13T05:58:27.897Z,1014.04
2022-10-13T05:59:27.881Z,1014.04
2022-10-13T06:00:27.883Z,1014.08
2022-10-13T06:01:27.906Z,1014.03
2022-10-13T06:02:27.849Z,1014.07
2022-10-13T06:03:27.841Z,1014.08
2022-10-13T06:04:27.839Z,1014.05
2022-10-13T06:05:27.831Z,1014.09
2022-10-13T06:06:31.264Z,1014.05
2022-10-13T06:07:27.797Z,1014.05
2022-10-13T06:08:27.813Z,1014.06
2022-10-13T06:09:27.784Z,1014.08
2022-10-13T06:10:27.782Z,1014.05
2022-10-13T06:11:27.757Z,1014.05
2022-10-13T06:12:27.756Z,1014.01
2022-10-13T06:13:27.743Z,1014.04
2022-10-13T06:14:27.727Z,1014.02
2022-10-13T06:15:28.469Z,1014.03
2022-10-13T06:16:27.723Z,1014.01
2022-10-13T06:17:27.693Z,1014.00
2022-10-13T06:18:27.689Z,1014.02
2022-10-13T06:19:27.679Z,1014.00
2022-10-13T06:20:27.665Z,1014.04
2022-10-13T06:21:27.666Z,1013.99
2022-10-13T06:22:27.638Z,1013.98
2022-10-13T06:23:27.626Z,1013.99
2022-10-13T06:24:27.629Z,1014.01
2022-10-13T06:25:27.608Z,1013.97
2022-10-13T06:26:27.715Z,1014.01
2022-10-13T06:27:27.594Z,1014.02
2022-10-13T06:28:27.641Z,1014.03
2022-10-13T06:29:27.566Z,1013.97
2022-10-13T06:30:27.562Z,1014.03
2022-10-13T06:31:27.557Z,1014.06
2022-10-13T06:32:27.547Z,1014.05
2022-10-13T06:33:27.516Z,1014.10
2022-10-13T06:34:27.511Z,1014.09
2022-10-13T06:35:27.502Z,1014.09
2022-10-13T06:36:27.502Z,1014.08
2022-10-13T06:37:27.764Z,1014.07
2022-10-13T06:38:27.469Z,1014.09
2022-10-13T06:39:27.454Z,1014.06
2022-10-13T06:40:27.445Z,1014.08
2022-10-13T06:41:27.435Z,1014.11
2022-10-13T06:42:27.455Z,1014.13
2022-10-13T06:43:35.686Z,1014.10
2022-10-13T06:44:27.429Z,1014.14
2022-10-13T06:45:27.391Z,1014.12
2022-10-13T06:46:27.387Z,1014.10
2022-10-13T06:47:27.375Z,1014.11
2022-10-13T06:48:27.357Z,1014.12
2022-10-13T06:49:27.347Z,1014.07
2022-10-13T06:50:27.342Z,1014.06
2022-10-13T06:51:27.331Z,1014.01
2022-10-13T06:52:27.331Z,1014.11
2022-10-13T06:53:27.315Z,1014.07
2022-10-13T06:54:27.295Z,1014.10
2022-10-13T06:55:27.289Z,1014.04
2022-10-13T06:56:27.285Z,1014.05
2022-10-13T06:57:27.277Z,1014.04
2022-10-13T06:58:27.259Z,1014.03
2022-10-13T06:59:27.233Z,1013.96
2022-10-13T07:00:27.260Z,1013.96
2022-10-13T07:01:27.217Z,1013.93
2022-10-13T07:02:27.217Z,1013.94
2022-10-13T07:03:27.204Z,1013.96
2022-10-13T07:04:27.197Z,1013.98
2022-10-13T07:05:27.176Z,1014.00
2022-10-13T07:06:27.177Z,1013.99
2022-10-13T07:07:27.163Z,1013.97
2022-10-13T07:08:27.135Z,1013.96
2022-10-13T07:09:27.128Z,1013.96
2022-10-13T07:10:27.174Z,1013.92
2022-10-13T07:11:27.114Z,1013.97
2022-10-13T07:12:27.116Z,1014.00
2022-10-13T07:13:28.476Z,1013.98
2022-10-13T07:14:27.082Z,1013.98
2022-10-13T07:15:27.195Z,1013.93
2022-10-13T07:16:27.050Z,1013.92
2022-10-13T07:17:27.055Z,1013.95
2022-10-13T07:18:27.040Z,1013.91
2022-10-13T07:19:27.021Z,1013.91
2022-10-13T07:20:27.012Z,1013.87
2022-10-13T07:21:27.008Z,1013.86
2022-10-13T07:22:27.021Z,1013.89
2022-10-13T07:23:26.995Z,1013.82
2022-10-13T07:24:26.962Z,1013.86
2022-10-13T07:25:26.957Z,1013.86
2022-10-13T07:26:26.940Z,1013.85
2022-10-13T07:27:26.981Z,1013.85
2022-10-13T07:28:27.018Z,1013.87
2022-10-13T07:29:26.903Z,1013.86
2022-10-13T07:30:26.899Z,1013.83
2022-10-13T07:31:26.899Z,1013.83
2022-10-13T07:32:26.885Z,1013.84
2022-10-13T07:33:26.875Z,1013.89
2022-10-13T07:34:26.858Z,1013.88
2022-10-13T07:35:30.434Z,1013.83
2022-10-13T07:36:26.836Z,1013.81
2022-10-13T07:37:26.814Z,1013.81
2022-10-13T07:38:26.845Z,1013.82
2022-10-13T07:39:26.806Z,1013.81
2022-10-13T07:40:26.803Z,1013.80
2022-10-13T07:41:26.784Z,1013.78
2022-10-13T07:42:26.778Z,1013.73
2022-10-13T07:43:26.764Z,1013.77
2022-10-13T07:44:26.744Z,1013.78
2022-10-13T07:45:26.730Z,1013.77
2022-10-13T07:46:26.724Z,1013.76
2022-10-13T07:47:26.715Z,1013.76
2022-10-13T07:48:26.722Z,1013.78
2022-10-13T07:49:26.695Z,1013.80
2022-10-13T07:50:26.676Z,1013.72
2022-10-13T07:51:26.662Z,1013.69
2022-10-13T07:52:26.664Z,1013.74
2022-10-13T07:53:26.661Z,1013.72
2022-10-13T07:54:27.593Z,1013.70
2022-10-13T07:55:26.631Z,1013.75
2022-10-13T07:56:26.622Z,1013.70
2022-10-13T07:57:26.604Z,1013.72
2022-10-13T07:58:26.603Z,1013.73
2022-10-13T07:59:26.584Z,1013.72
2022-10-13T08:00:26.590Z,1013.69
2022-10-13T08:01:26.633Z,1013.67
2022-10-13T08:02:26.559Z,1013.72
2022-10-13T08:03:26.593Z,1013.67
2022-10-13T08:04:26.528Z,1013.67
2022-10-13T08:05:26.650Z,1013.70
2022-10-13T08:06:26.530Z,1013.63
2022-10-13T08:07:26.518Z,1013.65
2022-10-13T08:08:26.497Z,1013.68
2022-10-13T08:09:26.478Z,1013.68
2022-10-13T08:10:26.466Z,1013.67
2022-10-13T08:11:26.488Z,1013.65
2022-10-13T08:12:26.442Z,1013.70
2022-10-13T08:13:26.443Z,1013.70
2022-10-13T08:14:26.518Z,1013.62
2022-10-13T08:15:26.401Z,1013.61
2022-10-13T08:16:26.399Z,1013.58
2022-10-13T08:17:26.388Z,1013.60
2022-10-13T08:18:26.401Z,1013.59
2022-10-13T08:19:26.461Z,1013.62
2022-10-13T08:20:36.218Z,1013.59
2022-10-13T08:21:56.747Z,1013.54
2022-10-13T08:22:28.429Z,1013.54
2022-10-13T08:23:26.331Z,1013.53
2022-10-13T08:24:26.335Z,1013.58
2022-10-13T08:25:26.295Z,1013.54
2022-10-13T08:26:26.293Z,1013.52
2022-10-13T08:27:32.783Z,1013.51
2022-10-13T08:28:26.295Z,1013.54
2022-10-13T08:29:26.405Z,1013.53
2022-10-13T08:30:26.489Z,1013.53
2022-10-13T08:31:26.430Z,1013.51
2022-10-13T08:32:26.238Z,1013.48
2022-10-13T08:33:26.213Z,1013.49
2022-10-13T08:34:26.208Z,1013.46
2022-10-13T08:35:26.212Z,1013.51
2022-10-13T08:36:26.191Z,1013.47
2022-10-13T08:37:26.170Z,1013.45
2022-10-13T08:38:26.156Z,1013.46
2022-10-13T08:39:26.168Z,1013.46
2022-10-13T08:40:26.161Z,1013.46
2022-10-13T08:41:26.120Z,1013.49
2022-10-13T08:42:26.107Z,1013.50
2022-10-13T08:43:26.103Z,1013.48
2022-10-13T08:45:10.800Z,1013.49
2022-10-13T08:45:40.824Z,1013.42
2022-10-13T08:46:26.073Z,1013.39
2022-10-13T08:47:26.061Z,1013.42
2022-10-13T08:48:26.050Z,1013.41
2022-10-13T08:49:26.031Z,1013.47
2022-10-13T08:50:26.035Z,1013.45
2022-10-13T08:51:26.018Z,1013.47
2022-10-13T08:52:26.002Z,1013.43
2022-10-13T08:53:25.997Z,1013.44
2022-10-13T08:54:25.987Z,1013.42
2022-10-13T08:55:25.989Z,1013.44
2022-10-13T08:56:25.957Z,1013.45
2022-10-13T08:57:25.948Z,1013.42
2022-10-13T08:58:25.935Z,1013.41
2022-10-13T08:59:25.939Z,1013.40
2022-10-13T09:00:26.208Z,1013.35
2022-10-13T09:01:25.959Z,1013.31
2022-10-13T09:02:25.891Z,1013.28
2022-10-13T09:03:25.897Z,1013.28
2022-10-13T09:04:25.875Z,1013.26
2022-10-13T09:05:25.880Z,1013.30
2022-10-13T09:06:25.862Z,1013.29
2022-10-13T09:07:25.865Z,1013.28
2022-10-13T09:08:25.840Z,1013.27
2022-10-13T09:09:25.829Z,1013.23
2022-10-13T09:10:25.836Z,1013.23
2022-10-13T09:11:26.011Z,1013.22
2022-10-13T09:12:25.789Z,1013.23
2022-10-13T09:13:25.779Z,1013.23
2022-10-13T09:14:25.763Z,1013.21
2022-10-13T09:15:25.757Z,1013.23
2022-10-13T09:16:26.030Z,1013.25
2022-10-13T09:17:25.750Z,1013.26
2022-10-13T09:18:25.737Z,1013.21
2022-10-13T09:19:25.747Z,1013.24
2022-10-13T09:20:25.698Z,1013.27
2022-10-13T09:21:25.690Z,1013.25
2022-10-13T09:22:25.690Z,1013.30
2022-10-13T09:23:25.663Z,1013.25
2022-10-13T09:24:25.652Z,1013.24
2022-10-13T09:25:25.646Z,1013.23
2022-10-13T09:26:25.643Z,1013.21
2022-10-13T09:27:25.646Z,1013.24
2022-10-13T09:28:25.688Z,1013.22
2022-10-13T09:29:25.606Z,1013.24
2022-10-13T09:30:25.596Z,1013.24
2022-10-13T09:31:25.577Z,1013.23
2022-10-13T09:32:25.580Z,1013.23
2022-10-13T09:33:25.559Z,1013.27
2022-10-13T09:34:25.546Z,1013.30
2022-10-13T09:35:25.528Z,1013.27
2022-10-13T09:36:25.521Z,1013.28
2022-10-13T09:37:25.545Z,1013.26
2022-10-13T09:38:25.519Z,1013.25
2022-10-13T09:39:25.496Z,1013.28
2022-10-13T09:40:25.479Z,1013.26
2022-10-13T09:41:25.470Z,1013.23
2022-10-13T09:42:25.481Z,1013.26
2022-10-13T09:43:25.460Z,1013.26
2022-10-13T09:44:27.066Z,1013.30
2022-10-13T09:45:25.422Z,1013.23
2022-10-13T09:46:25.415Z,1013.23
2022-10-13T09:47:25.406Z,1013.23
2022-10-13T09:48:25.415Z,1013.19
2022-10-13T09:49:25.384Z,1013.22
2022-10-13T09:50:25.365Z,1013.21
2022-10-13T09:51:25.356Z,1013.24
2022-10-13T09:52:25.358Z,1013.27
2022-10-13T09:53:25.354Z,1013.24
2022-10-13T09:54:25.328Z,1013.24
2022-10-13T09:55:28.692Z,1013.26
2022-10-13T09:56:25.318Z,1013.26
2022-10-13T09:57:25.305Z,1013.26
2022-10-13T09:58:25.290Z,1013.28
2022-10-13T09:59:25.270Z,1013.26
2022-10-13T10:00:25.262Z,1013.23
2022-10-13T10:01:25.245Z,1013.27
2022-10-13T10:02:26.705Z,1013.28
2022-10-13T10:03:25.245Z,1013.23
2022-10-13T10:04:25.279Z,1013.24
2022-10-13T10:05:25.221Z,1013.25
2022-10-13T10:06:27.729Z,1013.23
2022-10-13T10:07:25.205Z,1013.26
2022-10-13T10:08:33.356Z,1013.27
2022-10-13T10:09:25.217Z,1013.29
2022-10-13T10:10:25.151Z,1013.24
2022-10-13T10:11:25.187Z,1013.24
2022-10-13T10:12:27.666Z,1013.24
2022-10-13T10:13:25.121Z,1013.22
2022-10-13T10:14:25.106Z,1013.24
2022-10-13T10:15:25.121Z,1013.19
2022-10-13T10:16:25.093Z,1013.24
2022-10-13T10:17:25.083Z,1013.19
2022-10-13T10:18:25.071Z,1013.15
2022-10-13T10:19:25.069Z,1013.14
2022-10-13T10:20:25.066Z,1013.12
2022-10-13T10:21:25.057Z,1013.13
2022-10-13T10:22:25.024Z,1013.14
2022-10-13T10:23:25.039Z,1013.10
2022-10-13T10:24:25.024Z,1013.09
2022-10-13T10:25:25.015Z,1013.14
2022-10-13T10:26:30.133Z,1013.09
2022-10-13T10:27:24.992Z,1013.11
2022-10-13T10:28:25.033Z,1013.05
2022-10-13T10:29:24.944Z,1013.08
2022-10-13T10:30:24.974Z,1013.01
2022-10-13T10:31:24.935Z,1012.99
2022-10-13T10:32:24.910Z,1012.97
2022-10-13T10:33:24.907Z,1013.01
2022-10-13T10:34:24.894Z,1013.02
2022-10-13T10:35:24.894Z,1013.01
2022-10-13T10:36:24.879Z,1012.98
2022-10-13T10:37:25.486Z,1012.93
2022-10-13T10:38:24.851Z,1012.94
2022-10-13T10:39:24.838Z,1012.94
2022-10-13T10:40:24.835Z,1012.94
2022-10-13T10:41:24.825Z,1012.94
2022-10-13T10:42:24.800Z,1012.91
2022-10-13T10:43:24.804Z,1012.87
2022-10-13T10:44:24.778Z,1012.86
2022-10-13T10:45:24.810Z,1012.85
2022-10-13T10:46:24.804Z,1012.80
2022-10-13T10:47:25.120Z,1012.80
2022-10-13T10:48:24.737Z,1012.82
2022-10-13T10:49:24.735Z,1012.77
2022-10-13T10:50:24.732Z,1012.79
2022-10-13T10:51:24.718Z,1012.79
2022-10-13T10:52:24.690Z,1012.79
2022-10-13T10:53:24.692Z,1012.78
2022-10-13T10:54:24.673Z,1012.78
2022-10-13T10:55:24.670Z,1012.76
2022-10-13T10:56:24.664Z,1012.76
2022-10-13T10:57:24.646Z,1012.73
2022-10-13T10:58:24.650Z,1012.72
2022-10-13T10:59:24.627Z,1012.73
2022-10-13T11:00:24.752Z,1012.68
2022-10-13T11:01:24.656Z,1012.69
2022-10-13T11:02:24.583Z,1012.68
2022-10-13T11:03:24.595Z,1012.68
2022-10-13T11:04:24.601Z,1012.68
2022-10-13T11:05:24.591Z,1012.65
2022-10-13T11:06:24.668Z,1012.66
2022-10-13T11:07:24.540Z,1012.62
2022-10-13T11:08:24.520Z,1012.59
2022-10-13T11:09:24.510Z,1012.56
2022-10-13T11:10:24.508Z,1012.46
2022-10-13T11:11:25.070Z,1012.47
2022-10-13T11:12:24.471Z,1012.49
2022-10-13T11:13:24.461Z,1012.48
2022-10-13T11:14:24.449Z,1012.51
2022-10-13T11:15:24.453Z,1012.51
2022-10-13T11:16:24.446Z,1012.50
2022-10-13T11:17:24.480Z,1012.51
2022-10-13T11:18:24.406Z,1012.51
2022-10-13T11:19:24.414Z,1012.55
2022-10-13T11:20:24.391Z,1012.51
2022-10-13T11:21:24.379Z,1012.52
2022-10-13T11:22:24.735Z,1012.47
2022-10-13T11:23:24.368Z,1012.49
2022-10-13T11:24:24.351Z,1012.50
2022-10-13T11:25:24.347Z,1012.43
2022-10-13T11:26:24.330Z,1012.48
2022-10-13T11:27:24.331Z,1012.51
2022-10-13T11:28:24.340Z,1012.45
2022-10-13T11:29:24.300Z,1012.41
2022-10-13T11:30:24.305Z,1012.40
2022-10-13T11:31:24.279Z,1012.47
2022-10-13T11:32:24.265Z,1012.44
2022-10-13T11:33:24.266Z,1012.43
2022-10-13T11:34:24.263Z,1012.37
2022-10-13T11:35:24.235Z,1012.33
2022-10-13T11:36:24.216Z,1012.39
2022-10-13T11:37:24.212Z,1012.37
2022-10-13T11:38:24.208Z,1012.33
2022-10-13T11:39:24.278Z,1012.29
2022-10-13T11:40:24.176Z,1012.31
2022-10-13T11:41:24.200Z,1012.34
2022-10-13T11:42:24.158Z,1012.34
2022-10-13T11:43:24.151Z,1012.31
2022-10-13T11:44:24.221Z,1012.35
2022-10-13T11:45:24.128Z,1012.32
2022-10-13T11:46:24.156Z,1012.27
2022-10-13T11:47:24.103Z,1012.20
2022-10-13T11:48:24.085Z,1012.21
2022-10-13T11:49:24.074Z,1012.19
2022-10-13T11:50:24.088Z,1012.15
2022-10-13T11:51:24.080Z,1012.13
2022-10-13T11:52:24.051Z,1012.06
2022-10-13T11:53:24.070Z,1012.05
2022-10-13T11:54:24.026Z,1012.04
2022-10-13T11:55:24.032Z,1012.00
2022-10-13T11:56:24.009Z,1012.03
2022-10-13T11:57:23.994Z,1012.03
2022-10-13T11:58:23.986Z,1012.04
2022-10-13T11:59:23.981Z,1011.99
2022-10-13T12:00:23.973Z,1012.05
2022-10-13T12:01:24.029Z,1011.99
2022-10-13T12:02:24.313Z,1012.00
2022-10-13T12:03:23.930Z,1011.97
2022-10-13T12:04:23.911Z,1011.97
2022-10-13T12:05:23.927Z,1011.94